M I D A S
Marine Information and Data Acquisition System
Tripno 613 of the Zeeleeuw from 2003-12-09 07:40:17 to 2003-12-09 16:15:26
Back to CruiseResearch ActivitiesStationsMapUnderway DataData graphs

EquipmentUnitsComments
TimeDGPSUTC
LatitudeDGPSDM.mWGS84
LongitudeDGPSDM.mWGS84
SpeedMeteo Stationm/sRelative wind speed
DirectionMeteo StationdegRelative wind direction
TemperatureMeteo Stationdeg CelciusAir temperature
PressureMeteo StationPaAtmospheric pressure
HumidityMeteo Station%Relative humidity
Missing or incorrect values are displayed as -999
Metereological data collected by the RV Zeeleeuw from 2003-12-09 07:40:17 to 2003-12-09 16:15:26
                                                                                    Next 1000 lines
Time Latitude Longitude Speed Direction Temperature Pressure Humidity
2003-12-09 07:40:24 51°13.534 2°56.235 3.2 100 -0.2 102030 85
2003-12-09 07:40:28 51°13.534 2°56.234 3.1 86 -0.2 102030 85
2003-12-09 07:40:36 51°13.534 2°56.233 2.4 104 -0.2 102030 85
2003-12-09 07:40:40 51°13.534 2°56.232 3.3 98 -0.2 102030 85
2003-12-09 07:40:44 51°13.535 2°56.232 3.3 93 -0.2 102030 85
2003-12-09 07:40:48 51°13.536 2°56.232 3.7 95 -0.2 102020 85
2003-12-09 07:40:53 51°13.538 2°56.232 3.7 104 -0.2 102020 85
2003-12-09 07:41:00 51°13.54 2°56.232 3.3 106 -0.1 102020 85
2003-12-09 07:41:04 51°13.542 2°56.232 3.5 118 -0.1 102020 85
2003-12-09 07:41:09 51°13.544 2°56.232 3.8 120 -0.1 102020 85
2003-12-09 07:41:14 51°13.545 2°56.232 3.6 123 -0.1 102020 85
2003-12-09 07:41:20 51°13.546 2°56.233 3.6 124 -0.1 102030 85
2003-12-09 07:41:25 51°13.546 2°56.233 3.5 131 -0.1 102030 85
2003-12-09 07:41:29 51°13.545 2°56.233 3.4 132 -0.1 102020 85
2003-12-09 07:41:32 51°13.545 2°56.233 3.5 132 -0.1 102020 85
2003-12-09 07:41:40 51°13.543 2°56.233 3.3 138 -0.1 102030 85
2003-12-09 07:41:44 51°13.542 2°56.234 3.7 130 -0.1 102030 85
2003-12-09 07:41:49 51°13.541 2°56.235 3.4 132 -0.2 102030 85
2003-12-09 07:41:52 51°13.539 2°56.235 3.7 133 -0.2 102030 85
2003-12-09 07:42:00 51°13.536 2°56.237 3.8 143 -0.1 102020 85
2003-12-09 07:42:04 51°13.535 2°56.239 3.7 134 -0.1 102020 85
2003-12-09 07:42:09 51°13.532 2°56.24 3.3 129 -0.1 102020 85
2003-12-09 07:42:16 51°13.53 2°56.242 4 132 -0.1 102020 85
2003-12-09 07:42:20 51°13.528 2°56.242 3.6 153 -0.1 102020 85
2003-12-09 07:42:24 51°13.527 2°56.243 3.2 147 -0.1 102020 85
2003-12-09 07:42:28 51°13.527 2°56.244 2.9 141 -0.1 102030 85
2003-12-09 07:42:35 51°13.526 2°56.244 2.5 142 -0.1 102030 85
2003-12-09 07:42:40 51°13.526 2°56.244 2.7 144 -0.2 102030 85
2003-12-09 07:42:44 51°13.525 2°56.244 2.6 150 -0.2 102030 85
2003-12-09 07:42:49 51°13.526 2°56.244 3 147 -0.1 102030 85
2003-12-09 07:42:55 51°13.526 2°56.244 2.6 138 -0.1 102030 85
2003-12-09 07:43:00 51°13.527 2°56.244 2.3 122 -0.2 102020 85
2003-12-09 07:43:05 51°13.527 2°56.244 2 127 -0.2 102020 85
2003-12-09 07:43:08 51°13.528 2°56.243 1.9 146 -0.2 102030 85
2003-12-09 07:43:13 51°13.529 2°56.241 2.2 144 -0.2 102030 85
2003-12-09 07:43:19 51°13.531 2°56.238 2.4 147 -0.2 102030 85
2003-12-09 07:43:24 51°13.533 2°56.236 2.2 157 -0.2 102030 85
2003-12-09 07:43:28 51°13.534 2°56.234 2.1 151 -0.2 102020 85
2003-12-09 07:43:35 51°13.536 2°56.23 2.3 160 -0.2 102020 85
2003-12-09 07:43:37 51°13.537 2°56.229 2.1 161 -0.2 102020 85
2003-12-09 07:43:45 51°13.539 2°56.225 2.2 165 -0.2 102020 85
2003-12-09 07:43:49 51°13.54 2°56.222 2.1 159 -0.2 102030 85
2003-12-09 07:43:53 51°13.541 2°56.22 1.7 157 -0.2 102030 85
2003-12-09 07:43:59 51°13.542 2°56.216 2.1 164 -0.1 102030 85
2003-12-09 07:44:04 51°13.543 2°56.213 1.3 164 -0.1 102030 85
2003-12-09 07:44:09 51°13.544 2°56.21 1.7 174 -0.2 102030 85
2003-12-09 07:44:14 51°13.545 2°56.207 1.8 159 -0.2 102030 85
2003-12-09 07:44:19 51°13.545 2°56.203 1.6 162 -0.2 102030 85
2003-12-09 07:44:24 51°13.546 2°56.2 1.6 161 -0.2 102030 85
2003-12-09 07:44:30 51°13.547 2°56.195 1.8 155 -0.2 102030 85
2003-12-09 07:44:35 51°13.548 2°56.192 1.7 163 -0.2 102030 85
2003-12-09 07:44:40 51°13.549 2°56.188 1.9 168 -0.2 102030 85
2003-12-09 07:44:45 51°13.55 2°56.184 1.8 164 -0.2 102030 85
2003-12-09 07:44:50 51°13.551 2°56.18 1.9 169 -0.2 102030 85
2003-12-09 07:44:54 51°13.552 2°56.177 2.2 157 -0.2 102030 85
2003-12-09 07:44:59 51°13.553 2°56.172 2.3 166 -0.2 102030 85
2003-12-09 07:45:05 51°13.554 2°56.168 2 166 -0.2 102030 85
2003-12-09 07:45:09 51°13.555 2°56.164 2.4 166 -0.2 102030 85
2003-12-09 07:45:14 51°13.556 2°56.16 2.2 166 -0.2 102030 85
2003-12-09 07:45:19 51°13.558 2°56.156 1.9 158 -0.2 102030 85
2003-12-09 07:45:25 51°13.559 2°56.151 1.8 160 -0.2 102030 85
2003-12-09 07:45:28 51°13.56 2°56.149 2 179 -0.2 102020 85
2003-12-09 07:45:35 51°13.562 2°56.143 1.7 165 -0.2 102020 85
2003-12-09 07:45:39 51°13.562 2°56.14 2.1 175 -0.2 102020 85
2003-12-09 07:45:44 51°13.563 2°56.136 1.9 175 -0.2 102020 85
2003-12-09 07:45:48 51°13.564 2°56.132 2.1 176 -0.2 102030 85
2003-12-09 07:45:55 51°13.566 2°56.126 2 173 -0.2 102030 85
2003-12-09 07:45:59 51°13.567 2°56.123 1.8 179 -0.2 102030 85
2003-12-09 07:46:05 51°13.568 2°56.118 2.1 161 -0.2 102030 85
2003-12-09 07:46:09 51°13.569 2°56.114 2.1 172 -0.2 102020 85
2003-12-09 07:46:14 51°13.57 2°56.11 1.6 188 -0.2 102020 85
2003-12-09 07:46:19 51°13.571 2°56.106 2.1 182 -0.2 102020 85
2003-12-09 07:46:25 51°13.572 2°56.101 2.2 178 -0.2 102020 85
2003-12-09 07:46:28 51°13.573 2°56.098 1.5 177 -0.2 102020 85
2003-12-09 07:46:35 51°13.575 2°56.093 2.3 170 -0.2 102020 85
2003-12-09 07:46:39 51°13.576 2°56.089 1.8 169 -0.2 102020 85
2003-12-09 07:46:44 51°13.577 2°56.085 2 174 -0.2 102020 85
2003-12-09 07:46:49 51°13.578 2°56.082 1.7 180 -0.2 102020 85
2003-12-09 07:46:55 51°13.579 2°56.077 1.9 183 -0.2 102020 85
2003-12-09 07:46:59 51°13.58 2°56.074 1.8 174 -0.2 102020 85
2003-12-09 07:47:05 51°13.581 2°56.07 2.2 173 -0.2 102020 85
2003-12-09 07:47:08 51°13.582 2°56.068 2.6 171 -0.2 102020 85
2003-12-09 07:47:15 51°13.583 2°56.064 2 184 -0.2 102020 85
2003-12-09 07:47:20 51°13.584 2°56.061 1.8 182 -0.2 102020 85
2003-12-09 07:47:24 51°13.585 2°56.058 1.7 183 -0.2 102020 85
2003-12-09 07:47:28 51°13.585 2°56.056 1.6 178 -0.2 102020 85
2003-12-09 07:47:35 51°13.587 2°56.051 1.4 182 -0.2 102020 85
2003-12-09 07:47:40 51°13.588 2°56.048 2 177 -0.2 102020 85
2003-12-09 07:47:45 51°13.589 2°56.045 1.7 180 -0.2 102020 85
2003-12-09 07:47:49 51°13.59 2°56.042 1.3 184 -0.2 102020 85
2003-12-09 07:47:55 51°13.591 2°56.039 1.9   -0.2 102020 85
2003-12-09 07:47:59 51°13.592 2°56.037 2.4 172 -0.2 102020 85
2003-12-09 07:48:05 51°13.593 2°56.033 2.7 172 -0.2 102020 85
2003-12-09 07:48:10 51°13.594 2°56.031 2.5 171 -0.2 102020 85
2003-12-09 07:48:14 51°13.594 2°56.028 2.2 173 -0.2 102020 85
2003-12-09 07:48:20 51°13.596 2°56.025 2.9 175 -0.2 102020 85
2003-12-09 07:48:24 51°13.597 2°56.023 2.5 176 -0.2 102020 85
2003-12-09 07:48:28 51°13.597 2°56.021 2.6 175 -0.2 102020 85
2003-12-09 07:48:34 51°13.599 2°56.018 3.2 163 -0.2 102020 85
2003-12-09 07:48:40 51°13.6 2°56.015 2.6 167 -0.2 102020 85
2003-12-09 07:48:44 51°13.601 2°56.014 3.1 177 -0.2 102020 85
2003-12-09 07:48:50 51°13.602 2°56.012 2.8 175 -0.2 102010 85
2003-12-09 07:48:55 51°13.602 2°56.01 3.4   -0.2 102010 85
2003-12-09 07:48:59 51°13.603 2°56.009 3.2 164 -0.2 102020 85
2003-12-09 07:49:03 51°13.604 2°56.008 2.8 169 -0.2 102020 85
2003-12-09 07:49:08 51°13.604 2°56.007 3.1 160 -0.2 102020 85
2003-12-09 07:49:13 51°13.605 2°56.006 3 165 -0.2 102020 85
2003-12-09 07:49:19 51°13.606 2°56.004 2.6 171 -0.2 102020 85
2003-12-09 07:49:24 51°13.606 2°56.004 3.5 168 -0.2 102020 85
2003-12-09 07:49:28 51°13.607 2°56.003 3.5 175 -0.2 102020 85
2003-12-09 07:49:35 51°13.607 2°56.002 3.9 164 -0.2 102020 85
2003-12-09 07:49:39 51°13.607 2°56.002 3.7 160 -0.2 102020 85
2003-12-09 07:49:45 51°13.607 2°56.001 3.7 167 -0.2 102020 85
2003-12-09 07:49:48 51°13.607 2°56.001 3.4 167 -0.2 102020 85
2003-12-09 07:49:54 51°13.607 2°56.001 3.9 158 -0.2 102020 85
2003-12-09 07:50:00 51°13.607 2°56.001 3.2 151 -0.2 102010 85
2003-12-09 07:50:04 51°13.607 2°56.001 2.7 156 -0.2 102010 85
2003-12-09 07:50:10 51°13.607 2°56 2.9 164 -0.2 102010 85
2003-12-09 07:50:15 51°13.608 2°56 4 165 -0.2 102010 85
2003-12-09 07:50:20 51°13.608 2°56 3.2 167 -0.2 102010 85
2003-12-09 07:50:24 51°13.608 2°56 3.3 170 -0.2 102010 85
2003-12-09 07:50:29 51°13.608 2°55.999 3.5 160 -0.2 102010 85
2003-12-09 07:50:35 51°13.608 2°55.999 3.3 153 -0.2 102010 85
2003-12-09 07:50:39 51°13.608 2°55.999 3.1 153 -0.2 102010 85
2003-12-09 07:50:43 51°13.608 2°55.998 2.7 159 -0.2 102010 85
2003-12-09 07:50:48 51°13.608 2°55.998 3.1 161 -0.2 102010 85
2003-12-09 07:50:55 51°13.608 2°55.997 3.7   -0.2 102010 85
2003-12-09 07:50:59 51°13.608 2°55.997 3.3 154 -0.3 102010 85
2003-12-09 07:51:05 51°13.609 2°55.996 3.5 156 -0.3 102010 85
2003-12-09 07:51:10 51°13.609 2°55.995 3.1 165 -0.3 102010 85
2003-12-09 07:51:13 51°13.609 2°55.995 3.3 165 -0.3 102010 85
2003-12-09 07:51:20 51°13.609 2°55.995 3 164 -0.2 102010 85
2003-12-09 07:51:25 51°13.609 2°55.994 3.1 151 -0.2 102010 85
2003-12-09 07:51:30 51°13.609 2°55.994 2.8 150 -0.3 102010 85
2003-12-09 07:51:35 51°13.609 2°55.993 3 151 -0.3 102010 85
2003-12-09 07:51:39 51°13.609 2°55.993 3.9 156 -0.3 102020 85
2003-12-09 07:51:45 51°13.609 2°55.993 4 160 -0.3 102020 85
2003-12-09 07:51:48 51°13.609 2°55.992 4.2 156 -0.3 102020 85
2003-12-09 07:51:54 51°13.61 2°55.992 4.2   -0.3 102020 85
2003-12-09 07:52:00 51°13.61 2°55.991 3.9 155 -0.2 102010 85
2003-12-09 07:52:05 51°13.61 2°55.991 4.1 156 -0.2 102010 85
2003-12-09 07:52:08 51°13.611 2°55.991 3.5 155 -0.2 102010 85
2003-12-09 07:52:14 51°13.611 2°55.99 3.1 139 -0.2 102010 85
2003-12-09 07:52:20 51°13.612 2°55.989 3.7 155 -0.3 102010 85
2003-12-09 07:52:24 51°13.612 2°55.988 3.6 162 -0.3 102010 85
2003-12-09 07:52:30 51°13.613 2°55.987 3.2 161 -0.2 102010 85
2003-12-09 07:52:35 51°13.614 2°55.986 2.9 151 -0.2 102010 85
2003-12-09 07:52:40 51°13.614 2°55.984 3.1 153 -0.3 102010 85
2003-12-09 07:52:45 51°13.616 2°55.983 2.6 156 -0.3 102010 85
2003-12-09 07:52:48 51°13.616 2°55.982 2.4 158 -0.3 102010 85
2003-12-09 07:52:55 51°13.618 2°55.979 3.1   -0.3 102010 85
2003-12-09 07:52:58 51°13.619 2°55.978 3.1 164 -0.2 102010 85
2003-12-09 07:53:05 51°13.62 2°55.974 3.2 160 -0.2 102010 85
2003-12-09 07:53:09 51°13.621 2°55.973 3.1 162 -0.3 102010 85
2003-12-09 07:53:12 51°13.622 2°55.971 3.5 163 -0.3 102010 85
2003-12-09 07:53:20 51°13.624 2°55.967 3.1 157 -0.2 102010 85
2003-12-09 07:53:25 51°13.626 2°55.964 3 167 -0.2 102010 85
2003-12-09 07:53:30 51°13.628 2°55.96 2.9 167 -0.2 102010 85
2003-12-09 07:53:34 51°13.629 2°55.958 2.9 160 -0.2 102010 85
2003-12-09 07:53:38 51°13.63 2°55.955 3 157 -0.2 102010 85
2003-12-09 07:53:44 51°13.633 2°55.95 2.6 164 -0.2 102010 85
2003-12-09 07:53:49 51°13.635 2°55.946 2.1 164 -0.2 102010 85
2003-12-09 07:53:55 51°13.637 2°55.941 2.1   -0.2 102010 85
2003-12-09 07:53:58 51°13.638 2°55.938 1.8 172 -0.2 102010 85
2003-12-09 07:54:04 51°13.641 2°55.932 2.2 164 -0.2 102010 85
2003-12-09 07:54:08 51°13.643 2°55.928 2.1 171 -0.2 102010 84
2003-12-09 07:54:13 51°13.645 2°55.923 2.4 174 -0.2 102010 84
2003-12-09 07:54:19 51°13.648 2°55.916 1.7 151 -0.2 102010 85
2003-12-09 07:54:24 51°13.651 2°55.911 1.6 150 -0.2 102010 85
2003-12-09 07:54:28 51°13.653 2°55.905 1.5 167 -0.2 102010 85
2003-12-09 07:54:35 51°13.658 2°55.896 1.1 163 -0.2 102010 85
2003-12-09 07:54:40 51°13.661 2°55.888 1.2 134 -0.2 102010 85
2003-12-09 07:54:44 51°13.664 2°55.881 0.8 227 -0.2 102010 85
2003-12-09 07:54:49 51°13.668 2°55.873 0.9 145 -0.2 102010 84
2003-12-09 07:54:53 51°13.671 2°55.866 0.9   -0.2 102010 84
2003-12-09 07:55:00 51°13.676 2°55.852 0.7 146 -0.2 102010 85
2003-12-09 07:55:04 51°13.68 2°55.845 1.2 143 -0.2 102010 85
2003-12-09 07:55:08 51°13.683 2°55.837 1 147 -0.2 102010 85
2003-12-09 07:55:15 51°13.69 2°55.822 1.4 147 -0.2 102010 85
2003-12-09 07:55:19 51°13.694 2°55.814 1 151 -0.2 102010 84
2003-12-09 07:55:24 51°13.699 2°55.803 0.7 151 -0.2 102010 84
2003-12-09 07:55:28 51°13.703 2°55.794 0.8 135 -0.2 102010 84
2003-12-09 07:55:32 51°13.707 2°55.785 0.5 135 -0.2 102010 84
2003-12-09 07:55:40 51°13.716 2°55.766 0.3 135 -0.2 102010 84
2003-12-09 07:55:44 51°13.721 2°55.757 0.2 135 -0.2 102010 84
2003-12-09 07:55:49 51°13.726 2°55.745 0.1 135 -0.2 102020 84
2003-12-09 07:55:53 51°13.731 2°55.736 1   -0.2 102020 84
2003-12-09 07:56:00 51°13.741 2°55.72 0.8 92 -0.2 102010 84
2003-12-09 07:56:04 51°13.746 2°55.711 0.8 62 -0.2 102010 84
2003-12-09 07:56:08 51°13.752 2°55.703 1.8 55 -0.2 102020 84
2003-12-09 07:56:12 51°13.758 2°55.694 1.7 65 -0.2 102020 84
2003-12-09 07:56:20 51°13.771 2°55.678 1.4 59 -0.2 102010 85
2003-12-09 07:56:24 51°13.777 2°55.67 2.1 69 -0.2 102010 85
2003-12-09 07:56:28 51°13.784 2°55.663 1.5 52 -0.2 102010 85
2003-12-09 07:56:34 51°13.794 2°55.653 2.3 36 -0.2 102010 85
2003-12-09 07:56:40 51°13.805 2°55.643 2.8 21 -0.2 102010 85
2003-12-09 07:56:45 51°13.814 2°55.635 2.2 30 -0.2 102010 85
2003-12-09 07:56:48 51°13.82 2°55.631 1.7 18 -0.2 102010 85
2003-12-09 07:56:54 51°13.832 2°55.622 2.2 22 -0.2 102010 85
2003-12-09 07:57:00 51°13.844 2°55.613 2.3 20 -0.2 102010 85
2003-12-09 07:57:04 51°13.851 2°55.608 2.2 20 -0.2 102010 85
2003-12-09 07:57:10 51°13.863 2°55.6 2.9 25 -0.2 102010 85
2003-12-09 07:57:15 51°13.873 2°55.593 2.6 35 -0.2 102010 85
2003-12-09 07:57:20 51°13.883 2°55.587 1.9 31 -0.2 102010 85
2003-12-09 07:57:24 51°13.89 2°55.581 2.4 14 -0.2 102010 85
2003-12-09 07:57:30 51°13.902 2°55.574 2.7 19 -0.2 102010 85
2003-12-09 07:57:32 51°13.906 2°55.571 2.2 21 -0.2 102010 85
2003-12-09 07:57:40 51°13.922 2°55.56 2.2 28 -0.2 102020 85
2003-12-09 07:57:45 51°13.932 2°55.553 2.8 29 -0.2 102020 85
2003-12-09 07:57:48 51°13.938 2°55.549 2.4 55 -0.2 102010 85
2003-12-09 07:57:52 51°13.946 2°55.544 2.5   -0.2 102010 85
2003-12-09 07:58:00 51°13.961 2°55.533 2.5 23 -0.1 102010 85
2003-12-09 07:58:04 51°13.969 2°55.527 2.6 26 -0.1 102010 85
2003-12-09 07:58:10 51°13.981 2°55.519 2.8 54 -0.2 102010 84
2003-12-09 07:58:12 51°13.985 2°55.516 2.6 49 -0.2 102010 84
2003-12-09 07:58:20 51°14.001 2°55.505 2.1 55 -0.2 102010 84
2003-12-09 07:58:25 51°14.011 2°55.498 1.6 76 -0.2 102010 84
2003-12-09 07:58:28 51°14.017 2°55.494 1.8 67 -0.2 102010 84
2003-12-09 07:58:35 51°14.031 2°55.484 2 36 -0.2 102010 84
2003-12-09 07:58:40 51°14.041 2°55.477 1.7 27 -0.2 102010 84
2003-12-09 07:58:45 51°14.051 2°55.47 2.1 33 -0.2 102010 84
2003-12-09 07:58:49 51°14.059 2°55.464 2 23 -0.2 102010 84
2003-12-09 07:58:53 51°14.067 2°55.459 1.6   -0.2 102010 84
2003-12-09 07:58:59 51°14.079 2°55.45 2.2 32 -0.2 102010 84
2003-12-09 07:59:04 51°14.089 2°55.443 2.4 46 -0.2 102010 84
2003-12-09 07:59:09 51°14.1 2°55.435 2.3 63 -0.1 102010 84
2003-12-09 07:59:12 51°14.106 2°55.43 1.6 57 -0.1 102010 84
2003-12-09 07:59:20 51°14.123 2°55.417 1.6 40 -0.1 102010 84
2003-12-09 07:59:25 51°14.134 2°55.409 1.8 49 -0.1 102010 84
2003-12-09 07:59:29 51°14.143 2°55.402 1.9 54 -0.1 102010 84
2003-12-09 07:59:32 51°14.149 2°55.397 1.5 69 -0.1 102010 84
2003-12-09 07:59:40 51°14.167 2°55.382 2.1 50 -0.1 102010 84
2003-12-09 07:59:45 51°14.178 2°55.373 2 44 -0.1 102010 84
2003-12-09 07:59:49 51°14.187 2°55.364 2.3 40 -0.1 102010 84
2003-12-09 07:59:53 51°14.195 2°55.355 2.1 28 -0.1 102010 84
2003-12-09 07:59:59 51°14.207 2°55.341 1.7 33 -0.1 102010 84
2003-12-09 08:00:04 51°14.217 2°55.329 1.4 35 -0.1 102010 84
2003-12-09 08:00:09 51°14.227 2°55.316 1.3 25 -0.1 102010 85
2003-12-09 08:00:13 51°14.235 2°55.305 1.5 13 -0.1 102010 85
2003-12-09 08:00:19 51°14.246 2°55.288 1.5 13 -0.1 102010 85
2003-12-09 08:00:24 51°14.254 2°55.273 1.3 7 -0.1 102010 85
2003-12-09 08:00:29 51°14.263 2°55.258 1.4 360 -0.1 102010 85
2003-12-09 08:00:33 51°14.27 2°55.245 1.3 1 -0.1 102010 85
2003-12-09 08:00:39 51°14.28 2°55.226 1.3 346 -0.1 102010 85
2003-12-09 08:00:45 51°14.29 2°55.207 1.2 346 -0.1 102010 85
2003-12-09 08:00:48 51°14.295 2°55.197 1.6 342 -0.1 102010 85
2003-12-09 08:00:55 51°14.308 2°55.173 1.5 351 -0.1 102010 85
2003-12-09 08:00:59 51°14.315 2°55.159 1.6 7 -0.1 102010 85
2003-12-09 08:01:04 51°14.324 2°55.142 1.2 357 -0.1 102010 85
2003-12-09 08:01:09 51°14.332 2°55.124 1.5 354 -0.1 102010 85
2003-12-09 08:01:13 51°14.34 2°55.11 1.1 356 -0.1 102010 85
2003-12-09 08:01:19 51°14.351 2°55.088 1.1 357 -0.1 102010 85
2003-12-09 08:01:25 51°14.363 2°55.068 1 15 -0.1 102010 85
2003-12-09 08:01:30 51°14.374 2°55.052 1.1 39 -0.1 102010 85
2003-12-09 08:01:35 51°14.386 2°55.037 1.4 38 -0.1 102010 85
2003-12-09 08:01:39 51°14.396 2°55.026 2.2 60 -0.1 102000 85
2003-12-09 08:01:44 51°14.409 2°55.013 2.6 52 -0.1 102000 85
2003-12-09 08:01:49 51°14.423 2°55.001 2.3 52 -0.1 101990 85
2003-12-09 08:01:54 51°14.436 2°54.989 2.4 42 -0.1 101990 85
2003-12-09 08:01:59 51°14.45 2°54.977 3.4 36   102000 85
2003-12-09 08:02:04 51°14.463 2°54.963 3.1 54   102000 85
2003-12-09 08:02:09 51°14.477 2°54.95 3.3 41   102000 85
2003-12-09 08:02:13 51°14.487 2°54.938 3.2 43   102000 85
2003-12-09 08:02:18 51°14.5 2°54.924 2.9 31   102000 85
2003-12-09 08:02:24 51°14.515 2°54.905 2.8 31   102000 85
2003-12-09 08:02:29 51°14.528 2°54.888 2.6 25   102000 85
2003-12-09 08:02:33 51°14.537 2°54.874 2.9 28   102000 85
2003-12-09 08:02:40 51°14.554 2°54.848 2.7 30   102000 85
2003-12-09 08:02:45 51°14.565 2°54.829 2.5 31   102000 85
2003-12-09 08:02:49 51°14.575 2°54.813 2.8 28   102010 85
2003-12-09 08:02:54 51°14.586 2°54.793 2.6 39   102010 85
2003-12-09 08:03:00 51°14.6 2°54.769 2.3 45   102010 85
2003-12-09 08:03:05 51°14.612 2°54.75 2.8 41   102010 85
2003-12-09 08:03:09 51°14.622 2°54.735 3.5 46 0.1 102010 85
2003-12-09 08:03:13 51°14.632 2°54.72 2.7 39 0.1 102010 85
2003-12-09 08:03:18 51°14.645 2°54.702 3.1 40 0.1 102010 85
2003-12-09 08:03:24 51°14.66 2°54.681 2.7 44 0.1 102010 85
2003-12-09 08:03:29 51°14.673 2°54.663 2.8 48 0.1 102010 85
2003-12-09 08:03:33 51°14.684 2°54.649 2.8 47 0.1 102010 85
2003-12-09 08:03:40 51°14.702 2°54.623 3.2 59 0.1 102010 85
2003-12-09 08:03:45 51°14.715 2°54.604 3 53 0.1 102010 85
2003-12-09 08:03:49 51°14.726 2°54.587 2.3 60 0.1 102010 85
2003-12-09 08:03:55 51°14.742 2°54.563 2.6 63 0.1 102010 85
2003-12-09 08:04:00 51°14.755 2°54.544 2.6 48 0.1 102010 85
2003-12-09 08:04:05 51°14.769 2°54.525 2.7 52 0.1 102010 85
2003-12-09 08:04:09 51°14.78 2°54.51 2.8 50 0.2 102010 85
2003-12-09 08:04:13 51°14.791 2°54.496 2.9 65 0.2 102010 85
2003-12-09 08:04:18 51°14.806 2°54.479 3 60 0.2 102010 85
2003-12-09 08:04:24 51°14.824 2°54.459 3.1 54 0.2 102010 85
2003-12-09 08:04:29 51°14.839 2°54.443 2.9 63 0.2 102010 85
2003-12-09 08:04:33 51°14.852 2°54.431 2.8 59 0.2 102010 85
2003-12-09 08:04:37 51°14.864 2°54.418 3.5 56 0.2 102010 85
2003-12-09 08:04:44 51°14.885 2°54.396 4.1 52 0.2 102010 85
2003-12-09 08:04:49 51°14.9 2°54.379 3.4 58 0.2 102010 85
2003-12-09 08:04:54 51°14.915 2°54.362 3.1 58 0.2 102010 85
2003-12-09 08:05:00 51°14.931 2°54.34 3.1 65 0.2 102010 85
2003-12-09 08:05:05 51°14.945 2°54.321 2.6 67 0.2 102010 85
2003-12-09 08:05:09 51°14.955 2°54.305 2.3 81 0.2 102010 85
2003-12-09 08:05:15 51°14.971 2°54.282 2 66 0.2 102010 85
2003-12-09 08:05:20 51°14.984 2°54.262 2.2 50 0.2 102000 85
2003-12-09 08:05:23 51°14.992 2°54.25 2.3 43 0.2 102000 85
2003-12-09 08:05:29 51°15.007 2°54.225 1.7 68 0.2 102010 84
2003-12-09 08:05:35 51°15.022 2°54.201 1.3 67 0.2 102010 84
2003-12-09 08:05:39 51°15.032 2°54.184 1.5 52 0.2 102010 84
2003-12-09 08:05:43 51°15.042 2°54.168 1.5 37 0.2 102010 84
2003-12-09 08:05:47 51°15.052 2°54.15 2.2 38 0.3 102010 84
2003-12-09 08:05:54 51°15.071 2°54.123 2.9 46 0.3 102010 84
2003-12-09 08:05:59 51°15.084 2°54.104 3.4 53 0.3 102010 84
2003-12-09 08:06:05 51°15.102 2°54.085 3.4 58 0.3 102010 84
2003-12-09 08:06:09 51°15.115 2°54.074 4 52 0.3 102010 84
2003-12-09 08:06:14 51°15.131 2°54.06 4 63 0.3 102010 84
2003-12-09 08:06:18 51°15.144 2°54.051 4.2 65 0.3 102010 84
2003-12-09 08:06:24 51°15.164 2°54.039 4 67 0.3 102010 84
2003-12-09 08:06:29 51°15.18 2°54.029 4.6 66 0.3 102010 84
2003-12-09 08:06:33 51°15.194 2°54.022 4.6 64 0.3 102010 84
2003-12-09 08:06:40 51°15.217 2°54.009 4.9 56 0.3 102010 85
2003-12-09 08:06:45 51°15.234 2°53.999 5.2 50 0.3 102010 85
2003-12-09 08:06:50 51°15.251 2°53.99 4.4 57 0.3 102010 85
2003-12-09 08:06:55 51°15.268 2°53.98 4.6 56 0.3 102010 85
2003-12-09 08:06:59 51°15.282 2°53.974 5.1 56 0.4 102000 85
2003-12-09 08:07:04 51°15.299 2°53.967 5.7 58 0.4 102000 85
2003-12-09 08:07:09 51°15.316 2°53.962 6.3 57 0.4 102000 85
2003-12-09 08:07:13 51°15.33 2°53.96 6.7 66 0.4 102000 85
2003-12-09 08:07:20 51°15.355 2°53.959 7.1 59 0.4 102000 85
2003-12-09 08:07:25 51°15.373 2°53.958 6.5 54 0.4 102000 85
2003-12-09 08:07:29 51°15.387 2°53.959 6.6 59 0.4 102000 85
2003-12-09 08:07:33 51°15.401 2°53.96 6.8 58 0.4 102000 85
2003-12-09 08:07:39 51°15.422 2°53.96 6.2 64 0.5 102000 85
2003-12-09 08:07:45 51°15.443 2°53.96 6.5 53 0.5 102000 85
2003-12-09 08:07:48 51°15.454 2°53.96 5.8 59 0.5 102000 85
2003-12-09 08:07:55 51°15.479 2°53.956 5.4 62 0.5 102000 85
2003-12-09 08:08:00 51°15.497 2°53.953 6.4 61 0.6 102000 85
2003-12-09 08:08:03 51°15.507 2°53.951 6 68 0.6 102000 85
2003-12-09 08:08:09 51°15.529 2°53.946 5.1 73 0.6 101990 85
2003-12-09 08:08:13 51°15.543 2°53.943 5.8 68 0.6 101990 85
2003-12-09 08:08:19 51°15.564 2°53.939 6.3 57 0.7 102000 85
2003-12-09 08:08:25 51°15.586 2°53.936 7.1 63 0.7 102000 85
2003-12-09 08:08:28 51°15.597 2°53.936 6.8 61 0.7 102000 85
2003-12-09 08:08:35 51°15.622 2°53.937 7.3 65 0.7 102000 85
2003-12-09 08:08:40 51°15.639 2°53.939 6.7 65 0.7 101990 85
2003-12-09 08:08:44 51°15.654 2°53.94 6.9 66 0.7 101990 85
2003-12-09 08:08:49 51°15.672 2°53.941 7.6 65 0.8 102000 85
2003-12-09 08:08:54 51°15.689 2°53.943 7 67 0.8 102000 85
2003-12-09 08:08:59 51°15.707 2°53.945 7.5 62 0.8 101990 85
2003-12-09 08:09:04 51°15.725 2°53.948 7.2 63 0.8 101990 85
2003-12-09 08:09:08 51°15.739 2°53.95 7.2 63 0.8 101990 85
2003-12-09 08:09:12 51°15.753 2°53.953 7.4 61 0.8 101990 85
2003-12-09 08:09:19 51°15.778 2°53.96 7.6 63 0.9 101990 84
2003-12-09 08:09:25 51°15.798 2°53.967 8.1 64 0.9 101990 84
2003-12-09 08:09:30 51°15.815 2°53.974 7.9 59 0.9 101990 84
2003-12-09 08:09:32 51°15.822 2°53.977 8.3 62 0.9 101990 84
2003-12-09 08:09:39 51°15.846 2°53.988 8.3 58 0.9 101990 84
2003-12-09 08:09:43 51°15.859 2°53.995 8.9 61 0.9 101990 84
2003-12-09 08:09:48 51°15.876 2°54.003 7.4 69 0.9 101990 84
2003-12-09 08:09:54 51°15.896 2°54.012 8.6 61 0.9 101990 84
2003-12-09 08:10:00 51°15.917 2°54.021 8.3 55 0.9 101990 84
2003-12-09 08:10:04 51°15.93 2°54.027 8.9 57 0.9 101990 84
2003-12-09 08:10:09 51°15.947 2°54.036 9.4 59 1 101990 84
2003-12-09 08:10:14 51°15.963 2°54.047 9.3 61 1 101990 84
2003-12-09 08:10:20 51°15.982 2°54.06 8.5 56 1 101980 84
2003-12-09 08:10:24 51°15.995 2°54.069 9.5 58 1 101980 84
2003-12-09 08:10:29 51°16.011 2°54.079 9.2 59 1 101990 84
2003-12-09 08:10:33 51°16.023 2°54.087 8.4 61 1 101990 84
2003-12-09 08:10:40 51°16.044 2°54.099 8.5 55 1 101980 84
2003-12-09 08:10:44 51°16.055 2°54.106 8.5 61 1 101980 84
2003-12-09 08:10:49 51°16.069 2°54.115 8.2 63 1 101990 84
2003-12-09 08:10:53 51°16.079 2°54.122 8.8 65 1 101990 84
2003-12-09 08:11:00 51°16.097 2°54.135 9 62 1.1 102000 84
2003-12-09 08:11:04 51°16.106 2°54.143 8.9 66 1.1 102000 84
2003-12-09 08:11:09 51°16.117 2°54.153 8.4 63 1.1 102000 84
2003-12-09 08:11:12 51°16.124 2°54.159 8 61 1.1 102000 84
2003-12-09 08:11:20 51°16.14 2°54.175 7.5 65 1.1 101990 84
2003-12-09 08:11:23 51°16.145 2°54.18 7.4 61 1.1 101990 84
2003-12-09 08:11:29 51°16.156 2°54.191 7.3 61 1.1 102000 83
2003-12-09 08:11:33 51°16.163 2°54.198 8.3 61 1.1 102000 83
2003-12-09 08:11:39 51°16.173 2°54.207 7.1 64 1.1 102000 83
2003-12-09 08:11:45 51°16.182 2°54.217 7.5 65 1.1 102000 83
2003-12-09 08:11:50 51°16.189 2°54.224 7.3 67 1.2 102010 84
2003-12-09 08:11:52 51°16.192 2°54.227 7 73 1.2 102010 84
2003-12-09 08:12:00 51°16.203 2°54.238 6.1 71 1.2 102000 84
2003-12-09 08:12:05 51°16.209 2°54.244 7.1 69 1.2 102000 84
2003-12-09 08:12:09 51°16.213 2°54.249 6.5 71 1.2 102000 84
2003-12-09 08:12:15 51°16.219 2°54.257 7.4 64 1.2 102000 84
2003-12-09 08:12:19 51°16.223 2°54.261 7.1 68 1.2 102010 83
2003-12-09 08:12:25 51°16.228 2°54.269 7.3 67 1.2 102010 83
2003-12-09 08:12:28 51°16.231 2°54.272 6.8 69 1.2 102000 83
2003-12-09 08:12:35 51°16.236 2°54.281 6.9 70 1.2 102000 83
2003-12-09 08:12:40 51°16.239 2°54.286 6.9 69 1.3 102010 83
2003-12-09 08:12:45 51°16.242 2°54.292 8 65 1.3 102010 83
2003-12-09 08:12:48 51°16.243 2°54.295 6.8 69 1.3 102010 83
2003-12-09 08:12:55 51°16.247 2°54.302 6.7 69 1.3 102010 83
2003-12-09 08:13:00 51°16.248 2°54.307 7.2 65 1.3 102010 83
2003-12-09 08:13:04 51°16.25 2°54.311 7.2 62 1.3 102010 83
2003-12-09 08:13:09 51°16.251 2°54.316 7.2 61 1.3 102010 83
2003-12-09 08:13:14 51°16.253 2°54.32 7.1 61 1.3 102010 83
2003-12-09 08:13:20 51°16.254 2°54.325 6.6 63 1.3 102010 83
2003-12-09 08:13:25 51°16.255 2°54.328 6.8 61 1.3 102010 83
2003-12-09 08:13:29 51°16.255 2°54.33 7.4 60 1.3 102010 83
2003-12-09 08:13:34 51°16.255 2°54.332 7 62 1.3 102010 83
2003-12-09 08:13:40 51°16.255 2°54.333 6.9 62 1.3 102010 83
2003-12-09 08:13:45 51°16.254 2°54.333 6.5 56 1.3 102010 83
2003-12-09 08:13:49 51°16.254 2°54.333 6.6 58 1.4 101990 83
2003-12-09 08:13:53 51°16.254 2°54.333 6.7 56 1.4 101990 83
2003-12-09 08:14:00 51°16.253 2°54.331 7 57 1.3 101990 83
2003-12-09 08:14:05 51°16.252 2°54.33 7.1 54 1.3 101990 83
2003-12-09 08:14:10 51°16.251 2°54.328 6.8 53 1.3 101990 82
2003-12-09 08:14:15 51°16.251 2°54.326 7 51 1.3 101990 82
2003-12-09 08:14:20 51°16.25 2°54.325 6.5 48 1.4 101990 82
2003-12-09 08:14:25 51°16.249 2°54.323 6.2 51 1.4 101990 82
2003-12-09 08:14:28 51°16.249 2°54.322 6.4 50 1.4 102000 82
2003-12-09 08:14:33 51°16.248 2°54.32 6.6 50 1.4 102000 82
2003-12-09 08:14:39 51°16.247 2°54.318 6.2 46 1.3 101990 82
2003-12-09 08:14:44 51°16.246 2°54.317 6.2 52 1.3 101990 82
2003-12-09 08:14:50 51°16.245 2°54.314 6.6 51 1.3 101990 82
2003-12-09 08:14:52 51°16.245 2°54.314 6.3 49 1.3 101990 82
2003-12-09 08:14:57 51°16.244 2°54.312 6 48 1.3 101990 82
2003-12-09 08:15:05 51°16.243 2°54.309 6.1 54 1.3 101990 82
2003-12-09 08:15:09 51°16.242 2°54.307 5.7 52 1.3 102020 82
2003-12-09 08:15:12 51°16.242 2°54.306 6.1 40 1.3 102020 82
2003-12-09 08:15:20 51°16.241 2°54.303 5.8 47 1.3 102010 82
2003-12-09 08:15:24 51°16.24 2°54.301 5.4 57 1.3 102010 82
2003-12-09 08:15:29 51°16.239 2°54.299 5.7 49 1.4 102020 82
2003-12-09 08:15:32 51°16.239 2°54.298 5.6 48 1.4 102020 82
2003-12-09 08:15:37 51°16.238 2°54.296 5.8 54 1.4 102010 82
2003-12-09 08:16:01 51°16.234 2°54.286 6.2 53 1.4 102010 83
2003-12-09 08:16:08 51°16.233 2°54.283 6 48 1.4 102010 83
2003-12-09 08:16:12 51°16.233 2°54.281 6.3 48 1.4 102020 83
2003-12-09 08:16:17 51°16.232 2°54.279 6.5 43 1.4 102020 83
2003-12-09 08:16:22 51°16.231 2°54.277 5.9 43 1.4 102020 83
2003-12-09 08:16:27 51°16.23 2°54.275 6.3 44 1.4 102020 83
2003-12-09 08:16:32 51°16.229 2°54.273 6.4 45 1.4 102020 82
2003-12-09 08:16:37 51°16.228 2°54.271 5.7 44 1.4 102020 82
2003-12-09 08:16:42 51°16.228 2°54.269 6.2 43 1.4 102010 82
2003-12-09 08:16:48 51°16.227 2°54.267 5.9 45 1.4 102010 82
2003-12-09 08:16:52 51°16.226 2°54.265 6.1 46 1.4 102000 82
2003-12-09 08:16:58 51°16.225 2°54.263 6 48 1.4 102000 82
2003-12-09 08:17:02 51°16.224 2°54.262 6.6 49 1.4 102020 82
2003-12-09 08:17:08 51°16.223 2°54.26 6 49 1.4 102020 82
2003-12-09 08:17:12 51°16.223 2°54.258 5.9 47 1.4 102020 82
2003-12-09 08:17:17 51°16.222 2°54.257 6.3 46 1.4 102020 82
2003-12-09 08:17:23 51°16.221 2°54.255 6.6 49 1.4 102020 82
2003-12-09 08:17:28 51°16.22 2°54.254 6.5 47 1.4 102020 82
2003-12-09 08:17:32 51°16.22 2°54.252 6.2 49 1.4 102020 83
2003-12-09 08:17:37 51°16.219 2°54.251 6.2 49 1.4 102020 83
2003-12-09 08:17:40 51°16.218 2°54.251 6.2 51 1.4 102020 82
2003-12-09 08:17:48 51°16.217 2°54.249 6.5 54 1.4 102020 82
2003-12-09 08:17:52 51°16.216 2°54.248 6.5 50 1.4 102020 82
2003-12-09 08:17:57 51°16.215 2°54.246 6.4 50 1.4 102020 82
2003-12-09 08:18:02 51°16.215 2°54.245 6.4 50 1.4 102020 81
2003-12-09 08:18:07 51°16.214 2°54.244 6.1 51 1.4 102020 81
2003-12-09 08:18:12 51°16.214 2°54.243 5.9 50 1.4 102020 81
2003-12-09 08:18:16 51°16.213 2°54.243 6.1 47 1.4 102020 81
2003-12-09 08:18:21 51°16.212 2°54.242 6.1 52 1.4 102020 81
2003-12-09 08:18:28 51°16.211 2°54.241 6.5 45 1.4 102020 81
2003-12-09 08:18:32 51°16.21 2°54.24 6.7 50 1.4 102010 81
2003-12-09 08:18:38 51°16.21 2°54.24 6.3 50 1.4 102010 81
2003-12-09 08:18:41 51°16.209 2°54.239 6.3 53 1.4 102020 82
2003-12-09 08:18:48 51°16.208 2°54.239 6.3 55 1.4 102020 82
2003-12-09 08:18:52 51°16.208 2°54.238 6.4 58 1.4 102010 82
2003-12-09 08:18:56 51°16.207 2°54.238 6.8 55 1.4 102010 82
2003-12-09 08:19:03 51°16.206 2°54.238 6.6 51 1.4 102020 82
2003-12-09 08:19:08 51°16.205 2°54.237 7.2 56 1.4 102020 82
2003-12-09 08:19:12 51°16.205 2°54.237 7.2 54 1.4 102020 82
2003-12-09 08:19:16 51°16.204 2°54.237 6.6 52 1.4 102020 82
2003-12-09 08:19:23 51°16.204 2°54.237 6.4 54 1.4 102020 82
2003-12-09 08:19:28 51°16.203 2°54.237 7 54 1.4 102020 82
2003-12-09 08:19:32 51°16.203 2°54.237 6.3 55 1.4 102010 82
2003-12-09 08:19:38 51°16.202 2°54.237 6.6 57 1.4 102010 82
2003-12-09 08:19:43 51°16.201 2°54.237 7 56 1.4 102020 82
2003-12-09 08:19:48 51°16.201 2°54.237 7 56 1.4 102020 82
2003-12-09 08:19:52 51°16.2 2°54.236 6.9 63 1.4 102020 82
2003-12-09 08:19:56 51°16.2 2°54.236 7 56 1.4 102020 82
2003-12-09 08:20:01 51°16.199 2°54.237 7 58 1.4 102020 81
2003-12-09 08:20:08 51°16.199 2°54.237 7.2 59 1.4 102020 81
2003-12-09 08:20:12 51°16.198 2°54.237 7 62 1.4 102020 81
2003-12-09 08:20:18 51°16.198 2°54.237 6.4 64 1.4 102020 81
2003-12-09 08:20:23 51°16.198 2°54.237 6.9 66 1.4 102010 81
2003-12-09 08:20:28 51°16.198 2°54.238 7.3 69 1.4 102010 81
2003-12-09 08:20:32 51°16.198 2°54.238 6.7 69 1.3 102020 81
2003-12-09 08:20:38 51°16.198 2°54.238 6.6 67 1.3 102020 81
2003-12-09 08:20:40 51°16.198 2°54.239 6.5 64 1.3 102020 81
2003-12-09 08:20:48 51°16.198 2°54.239 5.7 72 1.3 102020 81
2003-12-09 08:20:52 51°16.198 2°54.24 5.6 75 1.3 102010 81
2003-12-09 08:20:58 51°16.198 2°54.24 6.2 76 1.3 102010 81
2003-12-09 08:21:00 51°16.198 2°54.24 6.4 75 1.4 102020 81
2003-12-09 08:21:07 51°16.198 2°54.241 5.8 72 1.4 102020 81
2003-12-09 08:21:12 51°16.198 2°54.241 5 76 1.4 102020 82
2003-12-09 08:21:16 51°16.198 2°54.241 5.1 76 1.4 102020 82
2003-12-09 08:21:20 51°16.199 2°54.242 5.1 74 1.4 102020 82
2003-12-09 08:21:27 51°16.199 2°54.242 5.3 74 1.4 102020 82
2003-12-09 08:21:32 51°16.199 2°54.243 6.3 67 1.4 102010 82
2003-12-09 08:21:36 51°16.199 2°54.243 6.4 69 1.4 102010 82
2003-12-09 08:21:42 51°16.2 2°54.244 6.7 71 1.4 102020 82
2003-12-09 08:21:47 51°16.2 2°54.245 5.8 71 1.4 102020 82
2003-12-09 08:21:52 51°16.2 2°54.245 5.6 74 1.5 102020 82
2003-12-09 08:21:57 51°16.201 2°54.246 5.3 76 1.5 102020 82
2003-12-09 08:22:00 51°16.201 2°54.246 5.6 71 1.5 102020 82
2003-12-09 08:22:08 51°16.201 2°54.247 5.4 80 1.5 102020 82
2003-12-09 08:22:12 51°16.202 2°54.248 4.9 77 1.4 102020 82
2003-12-09 08:22:17 51°16.202 2°54.249 5.8 72 1.4 102020 82
2003-12-09 08:22:22 51°16.202 2°54.249 5.9 75 1.4 102020 81
2003-12-09 08:22:28 51°16.203 2°54.25 5.6 73 1.4 102020 81
2003-12-09 08:22:32 51°16.203 2°54.251 5.7 73 1.5 102020 82
2003-12-09 08:22:38 51°16.204 2°54.253 5.6 71 1.5 102020 82
2003-12-09 08:22:40 51°16.204 2°54.254 5.8 70 1.4 102020 81
2003-12-09 08:22:47 51°16.207 2°54.259 5.8 74 1.4 102020 81
2003-12-09 08:22:53 51°16.211 2°54.263 6 70 1.4 102020 81
2003-12-09 08:22:57 51°16.214 2°54.266 6.3 81 1.4 102020 81
2003-12-09 08:23:02 51°16.218 2°54.269 6.4 85 1.4 102010 81
2003-12-09 08:23:08 51°16.225 2°54.273 6.4 90 1.4 102010 81
2003-12-09 08:23:12 51°16.23 2°54.273 6 95 1.5 102000 82
2003-12-09 08:23:17 51°16.237 2°54.273 5.8 107 1.5 102000 82
2003-12-09 08:23:21 51°16.243 2°54.272 5.7 110 1.5 102000 82
2003-12-09 08:23:27 51°16.251 2°54.267 4.9 124 1.5 102000 82
2003-12-09 08:23:32 51°16.258 2°54.262 4.7 129 1.5 102010 82
2003-12-09 08:23:38 51°16.267 2°54.253 3.8 146 1.5 102010 82
2003-12-09 08:23:43 51°16.274 2°54.244 3.5 151 1.5 102010 82
2003-12-09 08:23:48 51°16.28 2°54.232 2.7 165 1.5 102010 82
2003-12-09 08:23:52 51°16.285 2°54.222 2.5 166 1.5 102010 81
2003-12-09 08:23:58 51°16.292 2°54.204 1.6 166 1.5 102010 81
2003-12-09 08:24:01 51°16.296 2°54.195 1.7 162 1.5 102020 81
2003-12-09 08:24:08 51°16.304 2°54.169 1.1 163 1.5 102020 81
2003-12-09 08:24:12 51°16.31 2°54.154 0.9 166 1.5 102020 81
2003-12-09 08:24:17 51°16.317 2°54.134 0.4 190 1.5 102020 81
2003-12-09 08:24:22 51°16.325 2°54.112 0.9 273 1.5 102020 81
2003-12-09 08:24:27 51°16.332 2°54.09 1.7 1 1.5 102020 81
2003-12-09 08:24:32 51°16.341 2°54.068 1.6 17 1.5 102020 81
2003-12-09 08:24:37 51°16.35 2°54.045 1.4 25 1.5 102020 81
2003-12-09 08:24:42 51°16.36 2°54.022 1.1 50 1.5 102020 81
2003-12-09 08:24:48 51°16.373 2°53.995 1 68 1.5 102020 81
2003-12-09 08:24:53 51°16.384 2°53.971 1 71 1.5 102010 81
2003-12-09 08:24:58 51°16.394 2°53.946 0.7 62 1.5 102010 81
2003-12-09 08:25:00 51°16.398 2°53.936 0.6 62 1.5 102020 81
2003-12-09 08:25:08 51°16.414 2°53.895 0.7 62 1.5 102020 81
2003-12-09 08:25:12 51°16.422 2°53.874 0.8 55 1.6 102020 81
2003-12-09 08:25:18 51°16.435 2°53.843 1.2 52 1.6 102020 81
2003-12-09 08:25:21 51°16.441 2°53.828 1.1 50 1.6 102020 81
2003-12-09 08:25:50 51°16.501 2°53.674 1.3 21 1.6 102020 81
2003-12-09 08:25:56 51°16.514 2°53.642 1.3 30 1.6 102020 81
2003-12-09 08:26:00 51°16.522 2°53.621 1.3 23 1.6 102020 80
2003-12-09 08:26:06 51°16.535 2°53.589 1.2 16 1.6 102020 80
2003-12-09 08:26:11 51°16.545 2°53.563 1.6 18 1.6 102020 80
2003-12-09 08:26:16 51°16.556 2°53.537 1.5 25 1.6 102020 80
2003-12-09 08:26:20 51°16.565 2°53.516 1.3 28 1.6 102020 80
2003-12-09 08:26:25 51°16.576 2°53.49 1.9 32 1.6 102020 80
2003-12-09 08:26:29 51°16.585 2°53.47 1.8 38 1.6 102020 80
2003-12-09 08:26:36 51°16.602 2°53.435 1.9 15 1.6 102020 80
2003-12-09 08:26:40 51°16.611 2°53.415 1.9 15 1.6 102020 80
2003-12-09 08:26:45 51°16.623 2°53.391 2.1 29 1.6 102020 80
2003-12-09 08:26:51 51°16.638 2°53.362 2.4 30 1.6 102020 80
2003-12-09 08:26:56 51°16.65 2°53.338 2.2 33 1.6 102020 80
2003-12-09 08:27:00 51°16.66 2°53.319 1.8 36 1.6 102020 80
2003-12-09 08:27:06 51°16.675 2°53.291 1.7 42 1.6 102020 80
2003-12-09 08:27:11 51°16.687 2°53.267 1.8 42 1.6 102020 81
2003-12-09 08:27:16 51°16.7 2°53.244 2 51 1.6 102020 81
2003-12-09 08:27:21 51°16.712 2°53.22 1.7 48 1.7 102020 81
2003-12-09 08:27:24 51°16.72 2°53.207 1.5 40 1.7 102020 81
2003-12-09 08:27:30 51°16.735 2°53.179 1.9 48 1.7 102020 81
2003-12-09 08:27:36 51°16.751 2°53.152 1.8 46 1.7 102020 81
2003-12-09 08:27:40 51°16.761 2°53.134 2 44 1.7 102020 81
2003-12-09 08:27:46 51°16.777 2°53.108 2 47 1.7 102020 81
2003-12-09 08:27:48 51°16.783 2°53.099 2.2 56 1.7 102020 81
2003-12-09 08:27:56 51°16.804 2°53.064 2 68 1.7 102020 81
2003-12-09 08:28:00 51°16.814 2°53.046 2 73 1.7 102020 80
2003-12-09 08:28:06 51°16.83 2°53.02 1.9 76 1.7 102020 80
2003-12-09 08:28:10 51°16.84 2°53.003 1.8 76 1.7 102020 80
2003-12-09 08:28:16 51°16.854 2°52.977 1.4 82 1.7 102020 80
2003-12-09 08:28:20 51°16.864 2°52.96 1.5 74 1.8 102020 80
2003-12-09 08:28:25 51°16.876 2°52.939 1.8 59 1.8 102020 80
2003-12-09 08:28:29 51°16.885 2°52.922 1.9 56 1.8 102010 80
2003-12-09 08:28:36 51°16.901 2°52.892 1.5 67 1.8 102010 80
2003-12-09 08:28:40 51°16.911 2°52.874 1.4 68 1.8 102010 80
2003-12-09 08:28:45 51°16.922 2°52.851 1.3 68 1.8 102010 80
2003-12-09 08:28:49 51°16.932 2°52.833 1.6 64 1.8 102010 80
2003-12-09 08:28:56 51°16.948 2°52.8 1.4 67 1.8 102010 80
2003-12-09 08:29:00 51°16.958 2°52.782 1.5 78 1.8 102020 80
2003-12-09 08:29:04 51°16.969 2°52.765 2.3 81 1.8 102020 80
2003-12-09 08:29:09 51°16.982 2°52.745 2.7 84 1.8 102020 80
2003-12-09 08:29:15 51°16.999 2°52.721 2.6 81 1.8 102020 80
2003-12-09 08:29:20 51°17.013 2°52.702 2.5 84 1.9 102020 80
2003-12-09 08:29:26 51°17.031 2°52.679 2.2 70 1.9 102020 80
2003-12-09 08:29:29 51°17.04 2°52.668 2.2 58 1.8 102010 80
2003-12-09 08:29:36 51°17.06 2°52.641 2.7 64 1.8 102010 80
2003-12-09 08:29:40 51°17.072 2°52.625 2.7 65 1.9 102020 80
2003-12-09 08:29:45 51°17.086 2°52.606 2.7 48 1.9 102020 80
2003-12-09 08:29:49 51°17.097 2°52.59 2.1 63 1.9 102020 79
2003-12-09 08:29:56 51°17.116 2°52.562 2 58 1.9 102020 79
2003-12-09 08:30:00 51°17.127 2°52.546 2.3 52 1.9 102010 79
2003-12-09 08:30:03 51°17.135 2°52.534 2.8 65 1.9 102010 79
2003-12-09 08:30:09 51°17.152 2°52.51 2.9 60 1.9 102010 80
2003-12-09 08:30:16 51°17.171 2°52.481 2.3 74 1.9 102010 80
2003-12-09 08:30:20 51°17.182 2°52.466 2.5 57 1.9 102020 80
2003-12-09 08:30:26 51°17.199 2°52.441 3 56 1.9 102020 80
2003-12-09 08:30:29 51°17.208 2°52.43 3 52 2 102010 80
2003-12-09 08:30:35 51°17.225 2°52.406 3.3 60 2 102010 80
2003-12-09 08:30:40 51°17.239 2°52.386 3.1 64 2 102010 80
2003-12-09 08:30:46 51°17.256 2°52.362 2.6 61 2 102010 80
2003-12-09 08:30:49 51°17.264 2°52.349 2.4 76 2 102010 80
2003-12-09 08:30:56 51°17.284 2°52.321 3 75 2 102010 80
2003-12-09 08:31:00 51°17.295 2°52.304 2.6 73 2 102020 81
2003-12-09 08:31:04 51°17.306 2°52.288 2.5 73 2 102020 81
2003-12-09 08:31:11 51°17.326 2°52.259 2.7 64 2.1 102010 81
2003-12-09 08:31:16 51°17.34 2°52.238 2.3 79 2.1 102010 81
2003-12-09 08:31:20 51°17.351 2°52.222 2.8 69 2.1 102010 81
2003-12-09 08:31:26 51°17.368 2°52.197 2.7 69 2.1 102010 81
2003-12-09 08:31:29 51°17.376 2°52.185 2.4 66 2.1 102010 80
2003-12-09 08:31:36 51°17.396 2°52.157 2.6 60 2.1 102010 80
2003-12-09 08:31:40 51°17.407 2°52.14 2.4 76 2.1 102010 80
2003-12-09 08:31:45 51°17.421 2°52.119 2.2 64 2.1 102010 80
2003-12-09 08:31:50 51°17.435 2°52.099 2.5 54 2.1 102010 79
2003-12-09 08:31:56 51°17.452 2°52.074 2.6 58 2.1 102010 79
2003-12-09 08:32:01 51°17.466 2°52.053 2.8 57 2.1 102020 79
2003-12-09 08:32:06 51°17.48 2°52.033 2.8 59 2.1 102020 79
2003-12-09 08:32:10 51°17.491 2°52.016 2.5 62 2.1 102020 79
2003-12-09 08:32:15 51°17.505 2°51.996 2.7 58 2.1 102020 79
2003-12-09 08:32:20 51°17.519 2°51.975 3.5 45 2.1 102010 79
2003-12-09 08:32:25 51°17.533 2°51.955 2.7 50 2.1 102010 79
2003-12-09 08:32:30 51°17.547 2°51.935 2.5 51 2.2 102010 79
2003-12-09 08:32:36 51°17.563 2°51.91 2.9 54 2.2 102010 79
2003-12-09 08:32:40 51°17.574 2°51.893 2.6 41 2.2 102010 80
2003-12-09 08:32:44 51°17.586 2°51.876 3.1 53 2.2 102010 80
2003-12-09 08:32:51 51°17.605 2°51.847 3.2 40 2.2 102010 80
2003-12-09 08:32:56 51°17.619 2°51.827 2.8 62 2.2 102010 80
2003-12-09 08:33:00 51°17.63 2°51.81 2.5 75 2.2 102020 80
2003-12-09 08:33:04 51°17.641 2°51.794 2.7 70 2.2 102020 80
2003-12-09 08:33:10 51°17.658 2°51.77 2.3 44 2.2 102010 80
2003-12-09 08:33:16 51°17.674 2°51.745 2.9 47 2.2 102010 80
2003-12-09 08:33:20 51°17.685 2°51.729 2.9 52 2.3 102010 80
2003-12-09 08:33:24 51°17.697 2°51.713 3.2 65 2.3 102010 80
2003-12-09 08:33:31 51°17.716 2°51.684 2.5 57 2.2 102010 79
2003-12-09 08:33:36 51°17.73 2°51.663 2.2 50 2.2 102010 79
2003-12-09 08:33:40 51°17.741 2°51.647 2.6 44 2.3 102020 79
2003-12-09 08:33:45 51°17.754 2°51.627 2.7 51 2.3 102020 79
2003-12-09 08:33:48 51°17.763 2°51.614 2.2 59 2.3 102010 79
2003-12-09 08:33:56 51°17.785 2°51.582 2.2 48 2.3 102010 79
2003-12-09 08:34:00 51°17.796 2°51.566 2.2 54 2.3 102010 79
2003-12-09 08:34:06 51°17.813 2°51.541 2.1 54 2.3 102010 79
2003-12-09 08:34:09 51°17.821 2°51.529 2 54 2.3 102010 79
2003-12-09 08:34:16 51°17.841 2°51.5 2.5 44 2.3 102010 79
2003-12-09 08:34:20 51°17.852 2°51.483 2.4 62 2.3 102010 79
2003-12-09 08:34:25 51°17.866 2°51.463 2.6 55 2.3 102010 79
2003-12-09 08:34:30 51°17.88 2°51.442 2.8 43 2.3 102010 79
2003-12-09 08:34:36 51°17.897 2°51.417 2.8 33 2.3 102010 79
2003-12-09 08:34:40 51°17.908 2°51.401 2.5 53 2.4 102010 79
2003-12-09 08:34:45 51°17.922 2°51.38 2.4 58 2.4 102010 79
2003-12-09 08:34:50 51°17.936 2°51.359 2.2 59 2.4 102010 79
2003-12-09 08:34:56 51°17.953 2°51.333 2.3 51 2.4 102010 79
2003-12-09 08:35:00 51°17.965 2°51.317 2.2 43 2.4 102010 79
2003-12-09 08:35:04 51°17.976 2°51.299 1.9 43 2.4 102010 79
2003-12-09 08:35:09 51°17.99 2°51.278 1.8 45 2.4 102010 79
2003-12-09 08:35:16 51°18.01 2°51.248 1.8 46 2.4 102010 79
2003-12-09 08:35:20 51°18.021 2°51.231 1.9 51 2.4 102010 78
2003-12-09 08:35:26 51°18.038 2°51.206 2.6 34 2.4 102010 78
2003-12-09 08:35:29 51°18.047 2°51.193 2.6 32 2.4 102010 78
2003-12-09 08:35:36 51°18.066 2°51.163 2.9 51 2.4 102010 78
2003-12-09 08:35:40 51°18.078 2°51.146 2.6 62 2.4 102010 78
2003-12-09 08:35:46 51°18.095 2°51.121 2.4 61 2.4 102010 78
2003-12-09 08:35:51 51°18.109 2°51.1 2 55 2.4 102010 79
2003-12-09 08:35:56 51°18.123 2°51.079 2.5 59 2.4 102010 79
2003-12-09 08:36:01 51°18.138 2°51.057 2.4 70 2.4 102010 79
2003-12-09 08:36:06 51°18.152 2°51.037 2 63 2.4 102010 79
2003-12-09 08:36:10 51°18.163 2°51.021 2.2 71 2.4 102010 78
2003-12-09 08:36:16 51°18.179 2°50.999 2.5 86 2.4 102010 78
2003-12-09 08:36:20 51°18.189 2°50.985 2.4 87 2.4 102010 78
2003-12-09 08:36:25 51°18.203 2°50.969 2.5 83 2.4 102010 78
2003-12-09 08:36:29 51°18.213 2°50.957 2.1 64 2.4 102020 78
2003-12-09 08:36:36 51°18.232 2°50.938 2.8 75 2.4 102020 78
2003-12-09 08:36:40 51°18.242 2°50.929 2.9 74 2.5 102020 78
2003-12-09 08:36:44 51°18.253 2°50.92 3.8 75 2.5 102020 78
2003-12-09 08:36:51 51°18.272 2°50.907 4.4 77 2.5 102020 78
2003-12-09 08:36:56 51°18.285 2°50.899 4 78 2.5 102020 78
2003-12-09 08:37:01 51°18.299 2°50.894 4.8 80 2.5 102010 79
2003-12-09 08:37:05 51°18.31 2°50.891 4.5 77 2.5 102010 79
2003-12-09 08:37:11 51°18.326 2°50.889 5 78 2.5 102010 79
2003-12-09 08:37:17 51°18.342 2°50.889 6 81 2.5 102010 79
2003-12-09 08:37:21 51°18.351 2°50.89 6 81 2.6 102010 79
2003-12-09 08:37:26 51°18.363 2°50.893 7.1 83 2.6 102010 79
2003-12-09 08:37:29 51°18.37 2°50.895 7.1 82 2.6 102010 78
2003-12-09 08:37:37 51°18.387 2°50.903 6.9 82 2.6 102010 78
2003-12-09 08:37:41 51°18.394 2°50.909 5.8 70 2.5 102010 78
2003-12-09 08:37:46 51°18.403 2°50.917 6 74 2.5 102010 78
2003-12-09 08:37:50 51°18.409 2°50.924 6 69 2.6 102010 77
2003-12-09 08:37:57 51°18.42 2°50.934 6.6 70 2.6 102010 77
2003-12-09 08:38:01 51°18.425 2°50.941 7.2 66 2.6 102010 77
2003-12-09 08:38:06 51°18.432 2°50.948 5.9 74 2.6 102010 77
2003-12-09 08:38:09 51°18.436 2°50.952 6.1 78 2.6 102010 78
2003-12-09 08:38:17 51°18.445 2°50.961 6.2 80 2.6 102010 78
2003-12-09 08:38:21 51°18.45 2°50.965 6.6 80 2.6 102010 78
2003-12-09 08:38:27 51°18.456 2°50.971 7.2 84 2.6 102010 78
2003-12-09 08:38:29 51°18.458 2°50.973 6.8 84 2.6 102020 78
2003-12-09 08:38:36 51°18.465 2°50.979 6.1 83 2.6 102020 78
2003-12-09 08:38:41 51°18.47 2°50.982 6.4 83 2.7 102020 78
2003-12-09 08:38:45 51°18.474 2°50.985 6.3 82 2.7 102020 78
2003-12-09 08:38:49 51°18.477 2°50.988 6.4 83 2.7 102020 77
2003-12-09 08:38:57 51°18.484 2°50.994 6.4 84 2.7 102020 77
2003-12-09 08:39:01 51°18.487 2°50.996 6.1 85 2.7 102020 78
2003-12-09 08:39:06 51°18.491 2°50.999 6.2 86 2.7 102020 78
2003-12-09 08:39:11 51°18.495 2°51.002 5.5 79 2.7 102010 78
2003-12-09 08:39:16 51°18.498 2°51.005 6.4 82 2.7 102010 78
2003-12-09 08:39:21 51°18.5 2°51.007 6.7 82 2.7 102020 78
2003-12-09 08:39:25 51°18.502 2°51.008 6.4 93 2.7 102020 78
2003-12-09 08:39:30 51°18.504 2°51.009 6.8 94 2.7 102020 78
2003-12-09 08:39:37 51°18.506 2°51.009 6.3 102 2.7 102020 78
2003-12-09 08:39:41 51°18.507 2°51.009 6.2 104 2.7 102010 78
2003-12-09 08:39:46 51°18.508 2°51.008 5.7 113 2.7 102010 78
2003-12-09 08:39:50 51°18.508 2°51.007 6.3 114 2.7 102010 77
2003-12-09 08:39:57 51°18.51 2°51.005 6.3 116 2.7 102010 77
2003-12-09 08:40:01 51°18.511 2°51.004 6.1 116 2.7 102010 77
2003-12-09 08:40:06 51°18.512 2°51.002 6 119 2.7 102010 77
2003-12-09 08:40:11 51°18.513 2°51.001 5.9 123 2.8 102020 77
2003-12-09 08:40:16 51°18.514 2°50.999 5.6 124 2.8 102020 77
2003-12-09 08:40:21 51°18.515 2°50.997 6.2 124 2.7 102020 76
2003-12-09 08:40:26 51°18.516 2°50.995 6.2 127 2.7 102020 76
2003-12-09 08:40:31 51°18.516 2°50.993 5.3 128 2.7 102020 76
2003-12-09 08:40:36 51°18.517 2°50.991 5 125 2.7 102020 76
2003-12-09 08:40:41 51°18.518 2°50.989 5.3 124 2.7 102020 76
2003-12-09 08:40:44 51°18.519 2°50.988 5.1 126 2.7 102020 76
2003-12-09 08:40:50 51°18.519 2°50.985 5.5 120 2.7 102020 76
2003-12-09 08:40:57 51°18.521 2°50.983 5.7 113 2.7 102020 76
2003-12-09 08:41:01 51°18.521 2°50.982 5.8 113 2.8 102020 76
2003-12-09 08:41:06 51°18.522 2°50.98 5.8 112 2.8 102020 76
2003-12-09 08:41:10 51°18.523 2°50.979 6 111 2.8 102020 77
2003-12-09 08:41:17 51°18.524 2°50.976 5.8 114 2.8 102020 77
2003-12-09 08:41:21 51°18.524 2°50.975 5.8 110 2.8 102030 77
2003-12-09 08:41:26 51°18.525 2°50.973 5.9 108 2.8 102030 77
2003-12-09 08:41:30 51°18.525 2°50.972 5.7 111 2.8 102020 77
2003-12-09 08:41:37 51°18.526 2°50.97 5.8 112 2.8 102020 77
2003-12-09 08:41:41 51°18.526 2°50.969 5.8 104 2.8 102030 76
2003-12-09 08:41:46 51°18.527 2°50.968 5.7 101 2.8 102030 76
2003-12-09 08:41:51 51°18.527 2°50.967 5.8 102 2.8 102020 76
2003-12-09 08:41:56 51°18.528 2°50.966 6.7 102 2.8 102020 76
2003-12-09 08:42:01 51°18.528 2°50.964 6.3 99 2.8 102020 76
2003-12-09 08:42:06 51°18.528 2°50.963 6.5 98 2.8 102020 76
2003-12-09 08:42:11 51°18.528 2°50.962 6.5 96 2.8 102020 76
2003-12-09 08:42:17 51°18.529 2°50.961 6.5 100 2.8 102020 76
2003-12-09 08:42:21 51°18.529 2°50.96 6.5 96 2.8 102020 77
2003-12-09 08:42:26 51°18.529 2°50.959 6.2 92 2.8 102020 77
2003-12-09 08:42:31 51°18.529 2°50.958 6.1 92 2.8 102020 77
2003-12-09 08:42:36 51°18.53 2°50.957 6.8 89 2.8 102020 77
2003-12-09 08:42:41 51°18.53 2°50.957 6.8 91 2.8 102020 76
2003-12-09 08:42:45 51°18.53 2°50.956 6.7 88 2.8 102020 76
2003-12-09 08:42:49 51°18.53 2°50.955 7.4 85 2.8 102020 76
2003-12-09 08:42:57 51°18.53 2°50.954 7.4 85 2.8 102020 76
2003-12-09 08:43:01 51°18.529 2°50.953 6.8 87 2.8 102020 76
2003-12-09 08:43:06 51°18.529 2°50.952 6.9 85 2.8 102020 76
2003-12-09 08:43:11 51°18.529 2°50.951 7.1 85 2.8 102020 75
2003-12-09 08:43:17 51°18.529 2°50.95 7 84 2.8 102020 75
2003-12-09 08:43:21 51°18.529 2°50.95 6.5 84 2.8 102020 76
2003-12-09 08:43:26 51°18.529 2°50.949 6.6 82 2.8 102020 76
2003-12-09 08:43:29 51°18.528 2°50.948 6.3 80 2.8 102020 75
2003-12-09 08:43:37 51°18.528 2°50.947 6 80 2.8 102020 75
2003-12-09 08:43:41 51°18.528 2°50.947 5.3 77 2.8 102020 75
2003-12-09 08:43:46 51°18.528 2°50.946 6.3 79 2.8 102020 75
2003-12-09 08:43:51 51°18.527 2°50.945 5.8 79 2.8 102020 75
2003-12-09 08:43:56 51°18.527 2°50.945 5.6 79 2.8 102020 75
2003-12-09 08:44:01 51°18.526 2°50.944 5.6 79 2.8 102020 74
2003-12-09 08:44:06 51°18.526 2°50.943 5 71 2.8 102020 74
2003-12-09 08:44:10 51°18.526 2°50.943 5.6 71 2.8 102020 74
2003-12-09 08:44:17 51°18.525 2°50.942 5.6 72 2.8 102020 74
2003-12-09 08:44:21 51°18.525 2°50.941 4.9 71 2.8 102020 74
2003-12-09 08:44:25 51°18.524 2°50.941 5.1 73 2.8 102020 74
2003-12-09 08:44:29 51°18.524 2°50.94 5.5 69 2.8 102030 74
2003-12-09 08:44:37 51°18.523 2°50.94 6.2 67 2.8 102030 74
2003-12-09 08:44:41 51°18.522 2°50.939 6.2 66 2.8 102020 75
2003-12-09 08:44:46 51°18.522 2°50.938 6.2 64 2.8 102020 75
2003-12-09 08:44:49 51°18.521 2°50.938 6.9 65 2.8 102020 75
2003-12-09 08:44:57 51°18.52 2°50.937 6.6 64 2.8 102020 75
2003-12-09 08:45:01 51°18.52 2°50.937 6.6 63 2.8 102020 75
2003-12-09 08:45:05 51°18.519 2°50.936 6.3 61 2.8 102020 75
2003-12-09 08:45:11 51°18.519 2°50.936 6.8 59 2.8 102030 74
2003-12-09 08:45:17 51°18.518 2°50.935 6.1 63 2.8 102030 74
2003-12-09 08:45:21 51°18.517 2°50.934 6.2 63 2.8 102020 74
2003-12-09 08:45:26 51°18.517 2°50.934 5.5 67 2.8 102020 74
2003-12-09 08:45:30 51°18.516 2°50.933 6.7 62 2.8 102020 74
2003-12-09 08:45:37 51°18.515 2°50.933 6.4 65 2.8 102020 74
2003-12-09 08:45:41 51°18.515 2°50.932 6.1 66 2.8 102020 74
2003-12-09 08:45:46 51°18.514 2°50.932 6.4 58 2.8 102020 74
2003-12-09 08:45:57 51°18.512 2°50.93 5.9 57 2.8 102020 74
2003-12-09 08:46:01 51°18.512 2°50.93 6.4 56 2.8 102020 74
2003-12-09 08:46:06 51°18.511 2°50.929 6.1 52 2.8 102020 74
2003-12-09 08:46:10 51°18.51 2°50.929 6.3 52 2.8 102020 74
2003-12-09 08:46:17 51°18.509 2°50.928 6.1 52 2.8 102020 74
2003-12-09 08:46:22 51°18.508 2°50.928 6.2 54 2.8 102020 74
2003-12-09 08:46:26 51°18.507 2°50.927 6.4 59 2.8 102020 74
2003-12-09 08:46:31 51°18.507 2°50.926 6.4 58 2.8 102020 74
2003-12-09 08:46:36 51°18.506 2°50.926 5.7 57 2.8 102020 74
2003-12-09 08:46:41 51°18.505 2°50.925 6.3 56 2.8 102020 74
2003-12-09 08:46:45 51°18.504 2°50.925 5.7 54 2.8 102020 74
2003-12-09 08:46:50 51°18.503 2°50.924 6.1 56 2.8 102020 74
2003-12-09 08:46:57 51°18.502 2°50.924 5.8 59 2.8 102020 74
2003-12-09 08:47:01 51°18.501 2°50.923 5.6 49 2.8 102020 74
2003-12-09 08:47:05 51°18.501 2°50.923 5.8 47 2.8 102020 74
2003-12-09 08:47:09 51°18.5 2°50.922 6 52 2.8 102020 74
2003-12-09 08:47:17 51°18.498 2°50.921 6.6 62 2.8 102020 74
2003-12-09 08:47:21 51°18.498 2°50.921 5.7 59 2.8 102020 74
2003-12-09 08:47:25 51°18.497 2°50.921 5.9 62 2.8 102020 74
2003-12-09 08:47:31 51°18.496 2°50.92 5.4 63 2.9 102020 75
2003-12-09 08:47:37 51°18.495 2°50.92 6 63 2.9 102020 75
2003-12-09 08:47:41 51°18.495 2°50.919 6 64 2.9 102020 76
2003-12-09 08:47:46 51°18.494 2°50.919 5.5 67 2.9 102020 76
2003-12-09 08:47:51 51°18.493 2°50.919 5.9 66 2.9 102020 76
2003-12-09 08:47:56 51°18.492 2°50.918 5.6 68 2.9 102020 76
2003-12-09 08:48:01 51°18.492 2°50.918 5.7 69 2.9 102020 76
2003-12-09 08:48:06 51°18.491 2°50.918 5.2 71 2.9 102020 76
2003-12-09 08:48:10 51°18.49 2°50.917 6.7 61 2.9 102020 75
2003-12-09 08:48:17 51°18.489 2°50.917 5.6 58 2.9 102020 75
2003-12-09 08:48:28 51°18.488 2°50.917 6.6 63 2.9 102020 75
2003-12-09 08:48:32 51°18.488 2°50.918 6.9 63 2.9 102020 75
2003-12-09 08:48:37 51°18.488 2°50.919 6.5 68 2.9 102020 75
2003-12-09 08:48:42 51°18.489 2°50.922 5.9 74 2.9 102020 75
2003-12-09 08:48:47 51°18.49 2°50.925 6.3 79 2.9 102020 75
2003-12-09 08:48:53 51°18.492 2°50.928 6.9 82 2.9 102020 76
2003-12-09 08:48:57 51°18.493 2°50.931 6.9 84 2.9 102020 76
2003-12-09 08:49:02 51°18.496 2°50.934 6.9 90 2.9 102000 74
2003-12-09 08:49:06 51°18.5 2°50.937 6.6 94 2.9 102000 74
2003-12-09 08:49:12 51°18.506 2°50.941 6.1 96 2.9 102010 74
2003-12-09 08:49:17 51°18.514 2°50.942 5.5 109 2.9 102010 74
2003-12-09 08:49:22 51°18.522 2°50.941 4.8 115 2.9 102010 74
2003-12-09 08:49:26 51°18.529 2°50.939 4.2 116 2.9 102010 74
2003-12-09 08:49:32 51°18.54 2°50.932 3.6 127 2.9 102000 74
2003-12-09 08:49:37 51°18.549 2°50.923 2.3 142 2.9 102000 74
2003-12-09 08:49:42 51°18.558 2°50.91 1.8 136 2.9 102000 74
2003-12-09 08:49:45 51°18.563 2°50.902 0.9 157 2.9 102000 74
2003-12-09 08:49:53 51°18.573 2°50.874 1 246 2.9 102010 74
2003-12-09 08:49:57 51°18.576 2°50.859 3.6 329 2.9 102010 74
2003-12-09 08:50:02 51°18.579 2°50.838 3.9 306 2.9 102010 74
2003-12-09 08:50:06 51°18.58 2°50.82 4.4 282 2.9 102010 74
2003-12-09 08:50:13 51°18.579 2°50.788 5.1 287 2.9 102010 75
2003-12-09 08:50:17 51°18.576 2°50.769 4.7 302 2.9 102010 75
2003-12-09 08:50:22 51°18.573 2°50.745 5.1 302 2.9 102010 75
2003-12-09 08:50:26 51°18.569 2°50.726 6.6 299 2.9 102010 75
2003-12-09 08:50:33 51°18.56 2°50.692 6.7 308 2.9 102010 75
2003-12-09 08:50:37 51°18.553 2°50.673 7.2 313 2.9 102010 75
2003-12-09 08:50:41 51°18.545 2°50.654 7.2 313 3 102010 75
2003-12-09 08:50:47 51°18.532 2°50.627 7.8 320 3 102010 75
2003-12-09 08:50:52 51°18.519 2°50.606 8.6 319 3 102010 75
2003-12-09 08:50:57 51°18.505 2°50.587 9.5 320 3 102010 75
2003-12-09 08:51:02 51°18.489 2°50.571 9.4 327 3 102000 75
2003-12-09 08:51:06 51°18.476 2°50.559 10.8 330 3 102000 75
2003-12-09 08:51:13 51°18.452 2°50.541 10.5 333 3 102000 75
2003-12-09 08:51:18 51°18.434 2°50.53 10.8 332 3 102000 75
2003-12-09 08:51:22 51°18.419 2°50.521 10.4 336 2.9 101990 74
2003-12-09 08:51:28 51°18.397 2°50.509 10.7 335 2.9 101990 74
2003-12-09 08:51:33 51°18.378 2°50.499 11 333 3 101990 74
2003-12-09 08:51:37 51°18.363 2°50.492 10.4 333 3 101990 74
2003-12-09 08:51:41 51°18.347 2°50.485 10.5 337 2.9 101990 74
2003-12-09 08:51:47 51°18.324 2°50.473 11.1 335 2.9 101990 74
2003-12-09 08:51:52 51°18.304 2°50.463 11.3 335 3 101990 74
2003-12-09 08:51:57 51°18.284 2°50.454 10.6 338 3 101990 74
2003-12-09 08:52:02 51°18.264 2°50.444 11.6 339 2.9 101990 74
2003-12-09 08:52:06 51°18.249 2°50.437 11.9 338 2.9 101990 74
2003-12-09 08:52:13 51°18.221 2°50.423 12.3 337 2.9 101990 74
2003-12-09 08:52:17 51°18.205 2°50.415 12.5 337 2.9 101990 74
2003-12-09 08:52:21 51°18.189 2°50.407 11.4 336 3 101990 74
2003-12-09 08:52:27 51°18.165 2°50.395 10.9 336 3 101990 74
2003-12-09 08:52:32 51°18.145 2°50.385 11.7 336 3 101990 74
2003-12-09 08:52:37 51°18.126 2°50.375 11.3 337 3 101990 74
2003-12-09 08:52:42 51°18.106 2°50.366 10.9 336 2.9 101990 74
2003-12-09 08:52:46 51°18.09 2°50.357 11.9 335 2.9 101990 74
2003-12-09 08:52:53 51°18.062 2°50.344 10.8 335 2.9 101990 73
2003-12-09 08:52:57 51°18.046 2°50.336 11 335 2.9 101990 73
2003-12-09 08:53:03 51°18.022 2°50.324 11.7 335 2.9 101990 74
2003-12-09 08:53:05 51°18.014 2°50.32 12 333 2.9 101990 74
2003-12-09 08:53:12 51°17.986 2°50.306 11.3 335 2.9 101990 74
2003-12-09 08:53:17 51°17.966 2°50.296 11.6 335 2.9 101990 74
2003-12-09 08:53:21 51°17.95 2°50.288 11.3 335 2.9 101990 74
2003-12-09 08:53:27 51°17.926 2°50.276 10.8 341 2.9 101990 74
2003-12-09 08:53:30 51°17.914 2°50.27 11.3 339 2.9 101990 74
2003-12-09 08:53:37 51°17.886 2°50.257 11.6 338 2.9 101990 74
2003-12-09 08:53:42 51°17.866 2°50.247 11.8 339 2.9 101990 74
2003-12-09 08:53:46 51°17.85 2°50.239 12 335 2.9 101990 74
2003-12-09 08:53:52 51°17.826 2°50.226 10.9 334 2.9 102000 75
2003-12-09 08:53:57 51°17.806 2°50.216 10.7 335 2.9 102000 75
2003-12-09 08:54:01 51°17.79 2°50.208 11.3 331 2.9 102000 75
2003-12-09 08:54:06 51°17.77 2°50.199 11.7 337 2.9 102000 75
2003-12-09 08:54:13 51°17.742 2°50.185 11.3 336 2.9 101990 75
2003-12-09 08:54:17 51°17.726 2°50.176 11.6 336 2.9 101990 75
2003-12-09 08:54:22 51°17.706 2°50.166 11.6 335 2.9 101990 74
2003-12-09 08:54:26 51°17.691 2°50.159 11.3 336 2.9 101990 74
2003-12-09 08:54:33 51°17.663 2°50.146 12 337 2.9 102000 75
2003-12-09 08:54:37 51°17.647 2°50.138 11.1 332 2.9 102000 75
2003-12-09 08:54:41 51°17.631 2°50.13 11.2 335 2.9 101990 75
2003-12-09 08:54:47 51°17.607 2°50.118 10.6 336 2.9 101990 75
2003-12-09 08:54:52 51°17.587 2°50.108 10.5 336 2.9 102000 75
2003-12-09 08:54:57 51°17.567 2°50.098 11.3 335 2.9 102000 75
2003-12-09 08:55:02 51°17.547 2°50.088 10.4 339 2.9 101990 75
2003-12-09 08:55:06 51°17.531 2°50.08 11.7 335 2.9 101990 75
2003-12-09 08:55:13 51°17.504 2°50.067 11.2 341 2.9 101990 75
2003-12-09 08:55:17 51°17.487 2°50.059 11.6 335 2.9 101990 75
2003-12-09 08:55:21 51°17.472 2°50.051 11.5 337 2.9 102000 75
2003-12-09 08:55:28 51°17.444 2°50.038 11.1 339 2.9 102000 75
2003-12-09 08:55:32 51°17.428 2°50.031 10.4 338 2.9 102000 75
2003-12-09 08:55:38 51°17.404 2°50.019 10.8 335 2.9 102000 75
2003-12-09 08:55:41 51°17.393 2°50.012 11.2 334 2.8 101990 75
2003-12-09 08:55:46 51°17.373 2°50 10.9 332 2.8 101990 75
2003-12-09 08:55:50 51°17.357 2°49.99 9.8 329 2.8 101990 75
2003-12-09 08:55:57 51°17.331 2°49.97 10 332 2.8 101990 75
2003-12-09 08:56:01 51°17.316 2°49.959 10.8 335 2.8 102000 76
2003-12-09 08:56:06 51°17.297 2°49.945 10.7 330 2.8 102000 76
2003-12-09 08:56:12 51°17.274 2°49.928 11.3 331 2.8 101990 76
2003-12-09 08:56:17 51°17.256 2°49.914 10.8 328 2.8 101990 76
2003-12-09 08:56:22 51°17.237 2°49.9 10.2 331 2.8 101990 76
2003-12-09 08:56:26 51°17.222 2°49.888 10.4 335 2.8 101990 76
2003-12-09 08:56:33 51°17.196 2°49.869 10.8 332 2.8 102000 76
2003-12-09 08:56:37 51°17.181 2°49.858 10.3 332 2.8 102000 76
2003-12-09 08:56:41 51°17.166 2°49.847 10.2 332 2.7 101990 76
2003-12-09 08:56:47 51°17.143 2°49.831 10.4 334 2.7 101990 76
2003-12-09 08:56:52 51°17.124 2°49.818 11.1 335 2.7 101990 76
2003-12-09 08:56:57 51°17.106 2°49.804 10.7 332 2.7 101990 76
2003-12-09 08:57:02 51°17.087 2°49.79 11.7 333 2.7 101990 76
2003-12-09 08:57:06 51°17.072 2°49.779 10.6 330 2.7 101990 76
2003-12-09 08:57:13 51°17.046 2°49.76 10.5 332 2.7 101990 76
2003-12-09 08:57:17 51°17.031 2°49.749 11.2 334 2.7 101990 76
2003-12-09 08:57:21 51°17.016 2°49.738 10.7 333 2.7 102000 76
2003-12-09 08:57:28 51°16.99 2°49.719 10.3 329 2.7 102000 76
2003-12-09 08:57:32 51°16.975 2°49.708 10.5 327 2.7 101990 76
2003-12-09 08:57:38 51°16.953 2°49.692 10.7 328 2.7 101990 76
2003-12-09 08:57:41 51°16.941 2°49.683 10.8 327 2.7 101990 76
2003-12-09 08:57:46 51°16.923 2°49.669 9.9 330 2.7 101990 76
2003-12-09 08:57:50 51°16.908 2°49.656 10.4 325 2.7 101990 76
2003-12-09 08:57:57 51°16.883 2°49.633 9.8 325 2.7 101990 76
2003-12-09 08:58:01 51°16.869 2°49.62 9.6 326 2.6 101990 76
2003-12-09 08:58:06 51°16.851 2°49.603 10 330 2.6 101990 76
2003-12-09 08:58:13 51°16.827 2°49.579 10.7 325 2.6 101990 76
2003-12-09 08:58:17 51°16.812 2°49.566 10.2 325 2.6 101990 76
2003-12-09 08:58:22 51°16.794 2°49.549 10 327 2.6 101990 76
2003-12-09 08:58:26 51°16.779 2°49.535 10.2 330 2.6 101990 76
2003-12-09 08:58:33 51°16.753 2°49.512 10.4 331 2.6 101990 76
2003-12-09 08:58:37 51°16.739 2°49.499 10.6 333 2.6 101990 76
2003-12-09 08:58:42 51°16.72 2°49.483 9.4 326 2.6 101990 76
2003-12-09 08:58:46 51°16.705 2°49.47 10.1 335 2.6 101990 76
2003-12-09 08:58:53 51°16.679 2°49.446 11 334 2.6 101990 76
2003-12-09 08:58:58 51°16.66 2°49.429 10.7 332 2.6 101990 76
2003-12-09 08:59:02 51°16.646 2°49.414 10.2 333 2.6 101990 76
2003-12-09 08:59:06 51°16.631 2°49.4 10.8 330 2.6 101990 76
2003-12-09 08:59:13 51°16.607 2°49.374 10.9 328 2.6 101990 77
2003-12-09 08:59:17 51°16.593 2°49.358 9.8 329 2.6 101990 77
2003-12-09 08:59:22 51°16.575 2°49.339 10 330 2.6 101990 77
2003-12-09 08:59:26 51°16.562 2°49.323 9.6 334 2.6 101990 77
2003-12-09 08:59:33 51°16.538 2°49.296 9.3 331 2.6 101990 77
2003-12-09 08:59:37 51°16.524 2°49.281 9.3 331 2.6 101990 77
2003-12-09 08:59:42 51°16.507 2°49.26 9.7 331 2.6 101990 76
2003-12-09 08:59:46 51°16.494 2°49.244 8.9 332 2.6 101990 76
2003-12-09 08:59:51 51°16.478 2°49.224 9.2 337 2.5 101990 76
2003-12-09 08:59:57 51°16.458 2°49.199 9.3 336 2.5 101990 76
2003-12-09 09:00:01 51°16.445 2°49.183 9.9 333 2.5 101990 76
2003-12-09 09:00:07 51°16.425 2°49.158 9.2 333 2.5 101990 76
2003-12-09 09:00:12 51°16.409 2°49.138 9.5 332 2.5 101990 76
2003-12-09 09:00:18 51°16.389 2°49.114 8.7 333 2.5 101990 76
2003-12-09 09:00:22 51°16.376 2°49.097 8.4 333 2.5 101990 76
2003-12-09 09:00:27 51°16.359 2°49.077 9.5 328 2.5 101990 76
2003-12-09 09:00:33 51°16.34 2°49.053 9.4 329 2.5 101990 76
2003-12-09 09:00:37 51°16.327 2°49.037 9.5 332 2.5 101990 76
2003-12-09 09:00:42 51°16.31 2°49.017 9.9 334 2.5 101990 76
2003-12-09 09:00:47 51°16.294 2°48.996 9.4 330 2.5 101990 76
2003-12-09 09:00:53 51°16.274 2°48.972 9.4 334 2.5 101990 76
2003-12-09 09:00:57 51°16.261 2°48.956 9.1 330 2.5 101990 76
2003-12-09 09:01:02 51°16.245 2°48.936 8.9 332 2.5 101990 76
2003-12-09 09:01:06 51°16.231 2°48.92 9.4 330 2.5 101990 76
2003-12-09 09:01:13 51°16.208 2°48.892 9 332 2.5 101990 76
2003-12-09 09:01:17 51°16.195 2°48.876 9.2 332 2.5 101990 76
2003-12-09 09:01:22 51°16.179 2°48.856 8.8 330 2.5 102000 75
2003-12-09 09:01:26 51°16.166 2°48.84 9 325 2.5 102000 75
2003-12-09 09:01:33 51°16.143 2°48.812 8.4 327 2.5 101990 75
2003-12-09 09:01:37 51°16.13 2°48.795 8.9 333 2.5 101990 75
2003-12-09 09:01:41 51°16.116 2°48.779 9.2 333 2.5 101990 75
2003-12-09 09:01:46 51°16.1 2°48.759 9.4 334 2.5 101990 75
2003-12-09 09:01:53 51°16.077 2°48.731 8.8 331 2.5 101990 75
2003-12-09 09:01:57 51°16.064 2°48.715 9.1 331 2.5 101990 75
2003-12-09 09:02:02 51°16.048 2°48.695 8.7 330 2.5 101990 75
2003-12-09 09:02:06 51°16.034 2°48.679 9.4 330 2.5 101990 75
2003-12-09 09:02:12 51°16.015 2°48.654 9.3 330 2.5 101990 75
2003-12-09 09:02:17 51°15.998 2°48.635 9.6 331 2.5 101990 75
2003-12-09 09:02:21 51°15.985 2°48.618 9.9 330 2.5 101990 75
2003-12-09 09:02:26 51°15.969 2°48.599 9.2 329 2.5 101990 75
2003-12-09 09:02:30 51°15.955 2°48.583 9 333 2.5 101990 75
2003-12-09 09:02:37 51°15.932 2°48.555 8.4 335 2.5 101990 75
2003-12-09 09:02:41 51°15.919 2°48.539 8.9 334 2.5 101990 75
2003-12-09 09:02:45 51°15.906 2°48.523 9.3 333 2.5 101990 75
2003-12-09 09:02:53 51°15.88 2°48.491 9 332 2.5 101990 75
2003-12-09 09:02:57 51°15.867 2°48.475 10.4 332 2.5 101990 75
2003-12-09 09:03:02 51°15.85 2°48.456 9.7 332 2.5 101990 75
2003-12-09 09:03:06 51°15.837 2°48.44 9.5 325 2.5 101990 75
2003-12-09 09:03:12 51°15.817 2°48.416 8.9 331 2.5 101990 75
2003-12-09 09:03:17 51°15.801 2°48.396 8.9 328 2.5 101990 75
2003-12-09 09:03:21 51°15.788 2°48.38 8.9 327 2.5 101980 75
2003-12-09 09:03:27 51°15.768 2°48.356 9.2 330 2.5 101980 75
2003-12-09 09:03:33 51°15.748 2°48.332 9.4 330 2.5 101980 74
2003-12-09 09:03:37 51°15.735 2°48.316 8.9 331 2.5 101980 74
2003-12-09 09:03:42 51°15.719 2°48.296 9.3 329 2.5 101980 74
2003-12-09 09:03:47 51°15.702 2°48.277 9.1 328 2.5 101980 74
2003-12-09 09:03:52 51°15.686 2°48.257 8.8 328 2.5 101980 74
2003-12-09 09:03:57 51°15.669 2°48.237 9.4 329 2.5 101980 74
2003-12-09 09:04:02 51°15.653 2°48.217 9.2 325 2.5 101980 74
2003-12-09 09:04:06 51°15.64 2°48.201 8.2 326 2.5 101980 74
2003-12-09 09:04:12 51°15.62 2°48.177 9.4 325 2.5 101990 73
2003-12-09 09:04:17 51°15.604 2°48.158 8.9 326 2.5 101990 73
2003-12-09 09:04:21 51°15.591 2°48.142 8.2 330 2.6 101980 73
2003-12-09 09:04:26 51°15.574 2°48.123 9.3 330 2.6 101980 73